Map

Track Data

SID SEASON NUMBER BASIN SUBBASIN NAME ISO_TIME NATURE LAT LON WMO_WIND WMO_PRES WMO_AGENCY TRACK_TYPE DIST2LAND LANDFALL IFLAG USA_AGENCY USA_ATCF_ID USA_LAT USA_LON USA_RECORD USA_STATUS USA_WIND USA_PRES USA_SSHS USA_R34_NE USA_R34_SE USA_R34_SW USA_R34_NW USA_R50_NE USA_R50_SE USA_R50_SW USA_R50_NW USA_R64_NE USA_R64_SE USA_R64_SW USA_R64_NW USA_POCI USA_ROCI USA_RMW USA_EYE TOKYO_LAT TOKYO_LON TOKYO_GRADE TOKYO_WIND TOKYO_PRES TOKYO_R50_DIR TOKYO_R50_LONG TOKYO_R50_SHORT TOKYO_R30_DIR TOKYO_R30_LONG TOKYO_R30_SHORT TOKYO_LAND CMA_LAT CMA_LON CMA_CAT CMA_WIND CMA_PRES HKO_LAT HKO_LON HKO_CAT HKO_WIND HKO_PRES NEWDELHI_LAT NEWDELHI_LON NEWDELHI_GRADE NEWDELHI_WIND NEWDELHI_PRES NEWDELHI_CI NEWDELHI_DP NEWDELHI_POCI REUNION_LAT REUNION_LON REUNION_TYPE REUNION_WIND REUNION_PRES REUNION_TNUM REUNION_CI REUNION_RMW REUNION_R34_NE REUNION_R34_SE REUNION_R34_SW REUNION_R34_NW REUNION_R50_NE REUNION_R50_SE REUNION_R50_SW REUNION_R50_NW REUNION_R64_NE REUNION_R64_SE REUNION_R64_SW REUNION_R64_NW BOM_LAT BOM_LON BOM_TYPE BOM_WIND BOM_PRES BOM_TNUM BOM_CI BOM_RMW BOM_R34_NE BOM_R34_SE BOM_R34_SW BOM_R34_NW BOM_R50_NE BOM_R50_SE BOM_R50_SW BOM_R50_NW BOM_R64_NE BOM_R64_SE BOM_R64_SW BOM_R64_NW BOM_ROCI BOM_POCI BOM_EYE BOM_POS_METHOD BOM_PRES_METHOD NADI_LAT NADI_LON NADI_CAT NADI_WIND NADI_PRES WELLINGTON_LAT WELLINGTON_LON WELLINGTON_WIND WELLINGTON_PRES DS824_LAT DS824_LON DS824_STAGE DS824_WIND DS824_PRES TD9636_LAT TD9636_LON TD9636_STAGE TD9636_WIND TD9636_PRES TD9635_LAT TD9635_LON TD9635_WIND TD9635_PRES TD9635_ROCI NEUMANN_LAT NEUMANN_LON NEUMANN_CLASS NEUMANN_WIND NEUMANN_PRES MLC_LAT MLC_LON MLC_CLASS MLC_WIND MLC_PRES USA_GUST BOM_GUST BOM_GUST_PER REUNION_GUST REUNION_GUST_PER USA_SEAHGT USA_SEARAD_NE USA_SEARAD_SE USA_SEARAD_SW USA_SEARAD_NW STORM_SPEED STORM_DIR
1911254N12144 1911 58 WP MM NOT_NAMED 1911-09-11 09:00:00 NR 12.4000 143.500 main 1660 1660 __________O___ -1 12.4000 143.500 7 12 326
1911254N12144 1911 58 WP MM NOT_NAMED 1911-09-11 12:00:00 NR 12.9064 143.150 main 1712 1712 __________P___ -1 12.9064 143.150 7 13 325
1911254N12144 1911 58 WP MM NOT_NAMED 1911-09-11 15:00:00 NR 13.4301 142.770 main 1755 1755 __________P___ -1 13.4301 142.770 7 14 324
1911254N12144 1911 58 WP MM NOT_NAMED 1911-09-11 18:00:00 NR 13.9888 142.330 main 1801 1781 __________P___ -1 13.9888 142.330 7 15 321
1911254N12144 1911 58 WP MM NOT_NAMED 1911-09-11 21:00:00 NR 14.6000 141.800 main 1781 1729 __________O___ -1 14.6000 141.800 7 17 319
1911254N12144 1911 58 WP MM NOT_NAMED 1911-09-12 00:00:00 NR 15.2713 141.159 main 1731 1670 __________P___ -1 15.2713 141.159 7 19 316
1911254N12144 1911 58 WP MM NOT_NAMED 1911-09-12 03:00:00 NR 15.9719 140.415 main 1662 1596 __________P___ -1 15.9719 140.415 7 21 313
1911254N12144 1911 58 WP MM NOT_NAMED 1911-09-12 06:00:00 NR 16.6615 139.589 main 1599 1535 __________P___ -1 16.6615 139.589 7 21 309
1911254N12144 1911 58 WP MM NOT_NAMED 1911-09-12 09:00:00 NR 17.3000 138.700 main 1529 1462 __________O___ -1 17.3000 138.700 7 22 304
1911254N12144 1911 58 WP MM NOT_NAMED 1911-09-12 12:00:00 NR 17.8873 137.707 main 1456 1386 __________P___ -1 17.8873 137.707 7 22 300
1911254N12144 1911 58 WP MM NOT_NAMED 1911-09-12 15:00:00 NR 18.4106 136.670 main 1386 1318 __________P___ -1 18.4106 136.670 7 22 297
1911254N12144 1911 58 WP MM NOT_NAMED 1911-09-12 18:00:00 NR 18.8532 135.673 main 1324 1256 __________P___ -1 18.8532 135.673 7 19 294
1911254N12144 1911 58 WP MM NOT_NAMED 1911-09-12 21:00:00 NR 19.2000 134.800 main 1256 1211 __________O___ -1 19.2000 134.800 7 15 293
1911254N12144 1911 58 WP MM NOT_NAMED 1911-09-13 00:00:00 NR 19.4521 134.181 main 1217 1177 __________P___ -1 19.4521 134.181 7 11 292
1911254N12144 1911 58 WP MM NOT_NAMED 1911-09-13 03:00:00 NR 19.6155 133.692 main 1177 1148 __________P___ -1 19.6155 133.692 7 9 287
1911254N12144 1911 58 WP MM NOT_NAMED 1911-09-13 06:00:00 NR 19.7214 133.257 main 1148 1111 __________P___ -1 19.7214 133.257 7 9 282
1911254N12144 1911 58 WP MM NOT_NAMED 1911-09-13 09:00:00 NR 19.8000 132.800 main 1111 1053 __________O___ -1 19.8000 132.800 7 11 280
1911254N12144 1911 58 WP MM NOT_NAMED 1911-09-13 12:00:00 NR 19.9018 132.150 main 1042 982 __________P___ -1 19.9018 132.150 7 13 278
1911254N12144 1911 58 WP MM NOT_NAMED 1911-09-13 15:00:00 NR 19.9817 131.475 main 982 920 __________P___ -1 19.9817 131.475 7 12 277
1911254N12144 1911 58 WP MM NOT_NAMED 1911-09-13 18:00:00 NR 20.0456 130.837 main 910 860 __________P___ -1 20.0456 130.837 7 11 276
1911254N12144 1911 58 WP MM NOT_NAMED 1911-09-13 21:00:00 NR 20.1000 130.300 main 860 830 __________O___ -1 20.1000 130.300 7 8 278
1911254N12144 1911 58 WP MM NOT_NAMED 1911-09-14 00:00:00 NR 20.1557 129.958 main 832 802 __________P___ -1 20.1557 129.958 7 6 281
1911254N12144 1911 58 WP MM NOT_NAMED 1911-09-14 03:00:00 NR 20.2056 129.717 main 802 781 __________P___ -1 20.2056 129.717 7 4 283
1911254N12144 1911 58 WP MM NOT_NAMED 1911-09-14 06:00:00 NR 20.2529 129.518 main 784 764 __________P___ -1 20.2529 129.518 7 4 284
1911254N12144 1911 58 WP MM NOT_NAMED 1911-09-14 09:00:00 NR 20.3000 129.300 main 764 734 __________O___ -1 20.3000 129.300 7 5 281
1911254N12144 1911 58 WP MM NOT_NAMED 1911-09-14 12:00:00 NR 20.3499 128.991 main 734 707 __________P___ -1 20.3499 128.991 7 6 279
1911254N12144 1911 58 WP MM NOT_NAMED 1911-09-14 15:00:00 NR 20.3998 128.652 main 707 667 __________P___ -1 20.3998 128.652 7 7 279
1911254N12144 1911 58 WP MM NOT_NAMED 1911-09-14 18:00:00 NR 20.4498 128.288 main 667 632 __________P___ -1 20.4498 128.288 7 7 278
1911254N12144 1911 58 WP MM NOT_NAMED 1911-09-14 21:00:00 NR 20.5000 127.900 main 632 593 __________O___ -1 20.5000 127.900 7 7 278
1911254N12144 1911 58 WP MM NOT_NAMED 1911-09-15 00:00:00 NR 20.5538 127.505 main 597 560 __________P___ -1 20.5538 127.505 7 8 278
1911254N12144 1911 58 WP MM NOT_NAMED 1911-09-15 03:00:00 NR 20.6072 127.088 main 560 522 __________P___ -1 20.6072 127.088 7 8 277
1911254N12144 1911 58 WP MM NOT_NAMED 1911-09-15 06:00:00 NR 20.6569 126.652 main 527 482 __________P___ -1 20.6569 126.652 7 8 276
1911254N12144 1911 58 WP MM NOT_NAMED 1911-09-15 09:00:00 NR 20.7000 126.200 main 482 439 __________O___ -1 20.7000 126.200 7 9 275
1911254N12144 1911 58 WP MM NOT_NAMED 1911-09-15 12:00:00 NR 20.7367 125.699 main 439 405 __________P___ -1 20.7367 125.699 7 9 274
1911254N12144 1911 58 WP MM NOT_NAMED 1911-09-15 15:00:00 NR 20.7657 125.190 main 405 367 __________P___ -1 20.7657 125.190 7 9 273
1911254N12144 1911 58 WP MM NOT_NAMED 1911-09-15 18:00:00 NR 20.7868 124.711 main 367 340 __________P___ -1 20.7868 124.711 7 8 272
1911254N12144 1911 58 WP MM NOT_NAMED 1911-09-15 21:00:00 NR 20.8000 124.300 main 340 322 __________O___ -1 20.8000 124.300 7 6 272
1911254N12144 1911 58 WP MM NOT_NAMED 1911-09-16 00:00:00 NR 20.8103 124.019 main 322 311 __________P___ -1 20.8103 124.019 7 5 272
1911254N12144 1911 58 WP MM NOT_NAMED 1911-09-16 03:00:00 NR 20.8138 123.805 main 311 301 __________P___ -1 20.8138 123.805 7 4 270
1911254N12144 1911 58 WP MM NOT_NAMED 1911-09-16 06:00:00 NR 20.8105 123.613 main 301 286 __________P___ -1 20.8105 123.613 7 4 268
1911254N12144 1911 58 WP MM NOT_NAMED 1911-09-16 09:00:00 NR 20.8000 123.400 main 286 258 __________O___ -1 20.8000 123.400 4 5 267
1911254N12144 1911 58 WP MM NOT_NAMED 1911-09-16 12:00:00 NR 20.7823 123.100 main 258 232 __________P___ -1 20.7823 123.100 4 6 266
1911254N12144 1911 58 WP MM NOT_NAMED 1911-09-16 15:00:00 NR 20.7576 122.772 main 232 213 __________P___ -1 20.7576 122.772 4 6 265
1911254N12144 1911 58 WP MM NOT_NAMED 1911-09-16 18:00:00 NR 20.7291 122.434 main 205 182 __________P___ -1 20.7291 122.434 4 6 265
1911254N12144 1911 58 WP MM NOT_NAMED 1911-09-16 21:00:00 NR 20.7000 122.100 main 182 163 __________O___ -1 20.7000 122.100 4 6 265
1911254N12144 1911 58 WP MM NOT_NAMED 1911-09-17 00:00:00 NR 20.6748 121.789 main 163 147 __________P___ -1 20.6748 121.789 4 6 265
1911254N12144 1911 58 WP MM NOT_NAMED 1911-09-17 03:00:00 NR 20.6498 121.485 main 158 148 __________P___ -1 20.6498 121.485 4 6 265
1911254N12144 1911 58 WP MM NOT_NAMED 1911-09-17 06:00:00 NR 20.6249 121.189 main 148 145 __________P___ -1 20.6249 121.189 4 6 265
1911254N12144 1911 58 WP MM NOT_NAMED 1911-09-17 09:00:00 NR 20.6000 120.900 main 145 145 __________O___ -1 20.6000 120.900 4 5 264
1911254N12144 1911 58 WP MM NOT_NAMED 1911-09-17 12:00:00 NR 20.5735 120.695 main 145 145 __________P___ -1 20.5735 120.695 4 4 262
1911254N12144 1911 58 WP MM NOT_NAMED 1911-09-17 15:00:00 NR 20.5476 120.485 main 157 157 __________P___ -1 20.5476 120.485 4 5 264
1911254N12144 1911 58 WP MM NOT_NAMED 1911-09-17 18:00:00 NR 20.5230 120.208 main 164 164 __________P___ -1 20.5230 120.208 4 6 266
1911254N12144 1911 58 WP MM NOT_NAMED 1911-09-17 21:00:00 NR 20.5000 119.800 main 182 182 __________O___ -1 20.5000 119.800 4 10 267
1911254N12144 1911 58 WP MM NOT_NAMED 1911-09-18 00:00:00 NR 20.4766 119.170 main 220 220 __________P___ -1 20.4766 119.170 4 13 268
1911254N12144 1911 58 WP MM NOT_NAMED 1911-09-18 03:00:00 NR 20.4523 118.412 main 285 285 __________P___ -1 20.4523 118.412 4 15 268
1911254N12144 1911 58 WP MM NOT_NAMED 1911-09-18 06:00:00 NR 20.4265 117.598 main 301 277 __________P___ -1 20.4265 117.598 4 15 268
1911254N12144 1911 58 WP MM NOT_NAMED 1911-09-18 09:00:00 NR 20.4000 116.800 main 277 247 __________O___ -1 20.4000 116.800 4 14 271
1911254N12144 1911 58 WP MM NOT_NAMED 1911-09-18 12:00:00 NR 20.4558 116.083 main 247 229 __________P___ -1 20.4558 116.083 4 13 274
1911254N12144 1911 58 WP MM NOT_NAMED 1911-09-18 15:00:00 NR 20.4997 115.398 main 229 207 __________P___ -1 20.4997 115.398 4 12 271
1911254N12144 1911 58 WP MM NOT_NAMED 1911-09-18 18:00:00 NR 20.4686 114.764 main 207 203 __________P___ -1 20.4686 114.764 4 11 260
1911254N12144 1911 58 WP MM NOT_NAMED 1911-09-18 21:00:00 NR 20.3000 114.200 main 217 212 __________O___ -1 20.3000 114.200 4 12 236
1911254N12144 1911 58 WP MM NOT_NAMED 1911-09-19 00:00:00 NR 19.8278 113.746 main 245 245 __________P___ -1 19.8278 113.746 4 13 217
1911254N12144 1911 58 WP MM NOT_NAMED 1911-09-19 03:00:00 NR 19.2330 113.360 main 255 232 __________P___ -1 19.2330 113.360 4 14 211
1911254N12144 1911 58 WP MM NOT_NAMED 1911-09-19 06:00:00 NR 18.6467 112.993 main 238 228 __________P___ -1 18.6467 112.993 4 13 215
1911254N12144 1911 58 WP MM NOT_NAMED 1911-09-19 09:00:00 NR 18.2000 112.600 main 229 186 __________O___ -1 18.2000 112.600 4 10 236
1911254N12144 1911 58 WP MM NOT_NAMED 1911-09-19 12:00:00 NR 18.0632 112.097 main 186 139 __________P___ -1 18.0632 112.097 4 10 263
1911254N12144 1911 58 WP MM NOT_NAMED 1911-09-19 15:00:00 NR 18.0780 111.560 main 139 84 __________P___ -1 18.0780 111.560 4 10 276
1911254N12144 1911 58 WP MM NOT_NAMED 1911-09-19 18:00:00 NR 18.1788 111.018 main 84 45 __________P___ -1 18.1788 111.018 4 10 282
1911254N12144 1911 58 WP MM NOT_NAMED 1911-09-19 21:00:00 NR 18.3000 110.500 main 45 15 __________O___ -1 18.3000 110.500 4 9 280
1911254N12144 1911 58 WP MM NOT_NAMED 1911-09-20 00:00:00 NR 18.3249 110.102 main 15 0 __________P___ -1 18.3249 110.102 4 7 275
1911254N12144 1911 58 WP MM NOT_NAMED 1911-09-20 03:00:00 NR 18.3599 109.724 main 0 0 __________P___ -1 18.3599 109.724 4 8 277
1911254N12144 1911 58 WP MM NOT_NAMED 1911-09-20 06:00:00 NR 18.4151 109.308 main 0 0 __________P___ -1 18.4151 109.308 4 9 279
1911254N12144 1911 58 WP MM NOT_NAMED 1911-09-20 09:00:00 NR 18.5000 108.800 main 0 0 __________O___ -1 18.5000 108.800 4 11 281
1911254N12144 1911 58 WP MM NOT_NAMED 1911-09-20 12:00:00 NR 18.6200 108.158 main 52 52 __________P___ -1 18.6200 108.158 4 14 281
1911254N12144 1911 58 WP MM NOT_NAMED 1911-09-20 15:00:00 NR 18.7673 107.402 main 131 84 __________P___ -1 18.7673 107.402 4 15 282
1911254N12144 1911 58 WP MM NOT_NAMED 1911-09-20 18:00:00 NR 18.9308 106.571 main 84 0 __________P___ -1 18.9308 106.571 4 16 282
1911254N12144 1911 58 WP MM NOT_NAMED 1911-09-20 21:00:00 NR 19.1000 105.700 main 0 __________O___ -1 19.1000 105.700 4 17 282

Digital Typhoon Data and Search

About IBTrACS Database

This database is a web-friendly format of International Best Track Archive for Climate Stewardship (IBTrACS), a global best track data archive curated by NOAA dating back to 1842.

Updated: 2021-12-03